LFLE weather

Chambéry-Challes-les-Eaux Airport
Chambéry/Challes-les-Eaux, Auvergne-Rhône-Alpes, France

Public forecast

Using degrees Celsius for public forecast. Weather courtesy of forecast.io.

Closest aviation weather report (METAR) to Chambéry-Challes-les-Eaux Airport

Closest report is Chambéry-Savoie Airport, 6.1 nm (11.3 km) NW. Retrieved 2019/11/15 16:30 UTC (30 minutes ago):

LFLB 151630Z AUTO VRB02KT 9999 FEW030 SCT180 BKN240 03/01 Q1001 NOSIG

Closest aviation forecast (TAF) to Chambéry-Challes-les-Eaux Airport

Closest forecast is Chambéry-Savoie Airport, 6.1 nm (11.3 km) NW. Retrieved 2019/11/15 12:42 UTC (4 hours ago):

TAF LFLB 151100Z 1512/1612 VRB03KT CAVOK TEMPO 1512/1516 35005KT FEW013 SCT045 PROB30 TEMPO 1602/1607 -RA BKN040 OVC070